createdAt,value
2023-01-13T00:00:10.575Z,94.35
2023-01-13T00:02:37.156Z,94.73
2023-01-13T00:05:03.927Z,94.71
2023-01-13T00:07:30.454Z,95.09
2023-01-13T00:09:56.873Z,95.11
2023-01-13T00:12:23.325Z,94.92
2023-01-13T00:14:49.777Z,94.88
2023-01-13T00:17:16.261Z,94.52
2023-01-13T00:19:42.803Z,94.59
2023-01-13T00:22:09.584Z,94.29
2023-01-13T00:24:36.087Z,93.69
2023-01-13T00:27:02.541Z,92.94
2023-01-13T00:29:28.962Z,92.26
2023-01-13T00:31:55.544Z,90.70
2023-01-13T00:34:22.492Z,89.81
2023-01-13T00:36:48.928Z,89.72
2023-01-13T00:39:15.465Z,90.19
2023-01-13T00:42:00.254Z,91.09
2023-01-13T00:44:26.680Z,90.50
2023-01-13T00:46:53.488Z,90.03
2023-01-13T00:49:19.972Z,89.49
2023-01-13T00:51:46.408Z,88.10
2023-01-13T00:54:12.854Z,88.11
2023-01-13T00:56:40.996Z,86.86
2023-01-13T00:59:12.503Z,86.87
2023-01-13T01:01:39.559Z,86.95
2023-01-13T01:04:06.498Z,86.87
2023-01-13T01:06:32.980Z,86.63
2023-01-13T01:08:59.421Z,86.87
2023-01-13T01:11:30.719Z,86.65
2023-01-13T01:13:59.403Z,86.40
2023-01-13T01:16:28.503Z,86.65
2023-01-13T01:18:55.749Z,86.65
2023-01-13T01:21:24.671Z,86.55
2023-01-13T01:23:51.178Z,86.24
2023-01-13T01:26:24.850Z,86.67
2023-01-13T01:28:52.020Z,86.69
2023-01-13T01:31:24.863Z,87.20
2023-01-13T01:33:52.949Z,86.93
2023-01-13T01:36:21.505Z,87.04
2023-01-13T01:38:49.390Z,87.12
2023-01-13T01:41:19.619Z,87.34
2023-01-13T01:44:05.918Z,86.94
2023-01-13T01:46:39.639Z,87.69
2023-01-13T01:49:24.484Z,87.42
2023-01-13T01:51:59.466Z,87.24
2023-01-13T01:54:31.591Z,87.05
2023-01-13T01:56:58.539Z,86.59
2023-01-13T01:59:27.735Z,86.37
2023-01-13T02:01:54.519Z,86.31
2023-01-13T02:04:26.638Z,86.49
2023-01-13T02:06:53.878Z,86.90
2023-01-13T02:09:20.393Z,87.19
2023-01-13T02:12:05.294Z,87.27
2023-01-13T02:14:33.864Z,86.78
2023-01-13T02:17:15.373Z,86.52
2023-01-13T02:20:18.889Z,87.34
2023-01-13T02:23:41.087Z,87.44
2023-01-13T02:26:10.367Z,86.62
2023-01-13T02:29:06.999Z,86.68
2023-01-13T02:31:43.079Z,86.34
2023-01-13T02:34:44.811Z,86.23
2023-01-13T02:37:19.533Z,86.31
2023-01-13T02:39:55.918Z,86.39
2023-01-13T02:42:50.448Z,86.38
2023-01-13T02:45:24.252Z,86.19
2023-01-13T02:47:55.773Z,86.33
2023-01-13T02:50:28.950Z,86.15
2023-01-13T02:53:17.807Z,85.89
2023-01-13T02:55:48.370Z,85.80
2023-01-13T02:58:18.853Z,85.58
2023-01-13T03:00:46.531Z,85.41
2023-01-13T03:03:13.679Z,85.35
2023-01-13T03:05:44.049Z,84.99
2023-01-13T03:08:42.988Z,85.20
2023-01-13T03:11:14.453Z,84.55
2023-01-13T03:13:41.552Z,84.55
2023-01-13T03:16:14.057Z,84.53
2023-01-13T03:18:59.208Z,85.65
2023-01-13T03:21:34.294Z,85.53
2023-01-13T03:24:19.562Z,85.92
2023-01-13T03:27:00.874Z,86.42
2023-01-13T03:30:00.714Z,86.46
2023-01-13T03:32:29.591Z,85.95
2023-01-13T03:35:03.751Z,86.14
2023-01-13T03:37:37.699Z,85.16
2023-01-13T03:40:10.897Z,84.59
2023-01-13T03:42:39.912Z,83.31
2023-01-13T03:45:17.239Z,82.75
2023-01-13T03:47:55.713Z,81.92
2023-01-13T03:50:27.748Z,80.88
2023-01-13T03:53:05.028Z,80.38
2023-01-13T03:55:38.255Z,79.99
2023-01-13T03:58:14.395Z,79.43
2023-01-13T04:01:02.974Z,79.35
2023-01-13T04:03:32.932Z,78.47
2023-01-13T04:06:13.466Z,78.75
2023-01-13T04:08:51.483Z,78.69
2023-01-13T04:11:25.220Z,78.26
2023-01-13T04:13:53.300Z,78.24
2023-01-13T04:16:19.847Z,78.35
2023-01-13T04:18:49.876Z,78.57
2023-01-13T04:21:16.351Z,78.84
2023-01-13T04:23:42.763Z,79.14
2023-01-13T04:26:09.344Z,79.21
2023-01-13T04:28:35.719Z,79.19
2023-01-13T04:31:02.212Z,79.14
2023-01-13T04:33:28.666Z,79.30
2023-01-13T04:35:55.198Z,79.32
2023-01-13T04:38:22.225Z,79.55
2023-01-13T04:40:48.994Z,79.85
2023-01-13T04:43:15.764Z,79.93
2023-01-13T04:45:43.168Z,80.01
2023-01-13T04:48:09.800Z,80.38
2023-01-13T04:50:36.626Z,80.81
2023-01-13T04:53:03.188Z,80.71
2023-01-13T04:55:29.905Z,80.71
2023-01-13T04:58:02.020Z,80.48
2023-01-13T05:00:28.421Z,80.61
2023-01-13T05:02:54.885Z,80.37
2023-01-13T05:05:21.377Z,80.43
2023-01-13T05:07:47.831Z,79.94
2023-01-13T05:10:14.344Z,79.76
2023-01-13T05:12:59.467Z,79.75
2023-01-13T05:15:44.426Z,79.34
2023-01-13T05:18:11.292Z,79.47
2023-01-13T05:20:37.802Z,79.21
2023-01-13T05:23:22.969Z,79.12
2023-01-13T05:25:49.634Z,78.75
2023-01-13T05:28:16.419Z,78.88
2023-01-13T05:30:46.199Z,79.12
2023-01-13T05:33:15.050Z,79.18
2023-01-13T05:35:42.874Z,79.34
2023-01-13T05:38:13.809Z,79.48
2023-01-13T05:40:59.705Z,79.14
2023-01-13T05:43:27.011Z,79.16
2023-01-13T05:45:53.517Z,78.81
2023-01-13T05:48:22.720Z,78.68
2023-01-13T05:50:50.191Z,78.33
2023-01-13T05:53:18.086Z,78.38
2023-01-13T05:55:45.288Z,78.36
2023-01-13T05:58:13.589Z,78.29
2023-01-13T06:00:41.840Z,77.89
2023-01-13T06:03:08.910Z,77.84
2023-01-13T06:05:35.544Z,77.60
2023-01-13T06:08:04.475Z,77.31
2023-01-13T06:10:31.404Z,77.01
2023-01-13T06:12:57.852Z,76.61
2023-01-13T06:15:24.802Z,76.50
2023-01-13T06:17:51.681Z,76.06
2023-01-13T06:20:18.965Z,75.70
2023-01-13T06:22:50.990Z,75.49
2023-01-13T06:25:29.637Z,75.08
2023-01-13T06:27:58.959Z,75.43
2023-01-13T06:30:29.347Z,74.85
2023-01-13T06:33:01.306Z,75.09
2023-01-13T06:35:33.320Z,74.88
2023-01-13T06:38:03.669Z,75.16
2023-01-13T06:40:30.374Z,75.59
2023-01-13T06:43:16.674Z,75.29
2023-01-13T06:45:50.792Z,75.42
2023-01-13T06:48:18.829Z,74.88
2023-01-13T06:50:45.310Z,74.99
2023-01-13T06:53:11.873Z,75.32
2023-01-13T06:55:38.287Z,75.30
2023-01-13T06:58:05.407Z,75.16
2023-01-13T07:00:32.963Z,75.09
2023-01-13T07:03:10.608Z,75.77
2023-01-13T07:05:39.676Z,75.34
2023-01-13T07:08:06.791Z,75.37
2023-01-13T07:10:33.856Z,75.50
2023-01-13T07:13:20.369Z,75.48
2023-01-13T07:15:57.946Z,75.13
2023-01-13T07:18:27.381Z,74.44
2023-01-13T07:21:02.433Z,74.40
2023-01-13T07:23:31.480Z,73.92
2023-01-13T07:25:59.344Z,73.39
2023-01-13T07:28:27.742Z,73.52
2023-01-13T07:30:54.362Z,72.93
2023-01-13T07:33:21.355Z,72.93
2023-01-13T07:35:48.923Z,72.98
2023-01-13T07:38:15.812Z,72.48
2023-01-13T07:40:42.235Z,72.42
2023-01-13T07:43:30.676Z,72.54
2023-01-13T07:45:58.765Z,72.24
2023-01-13T07:48:29.493Z,72.00
2023-01-13T07:50:55.997Z,71.88
2023-01-13T07:53:24.871Z,71.59
2023-01-13T07:55:54.808Z,71.36
2023-01-13T07:58:21.218Z,71.09
2023-01-13T08:00:47.744Z,71.07
2023-01-13T08:03:14.362Z,71.22
2023-01-13T08:05:41.265Z,70.92
2023-01-13T08:08:07.976Z,71.18
2023-01-13T08:10:34.576Z,70.96
2023-01-13T08:13:22.209Z,70.89
2023-01-13T08:15:50.796Z,70.83
2023-01-13T08:18:21.290Z,70.27
2023-01-13T08:20:54.862Z,69.87
2023-01-13T08:23:23.371Z,69.69
2023-01-13T08:25:50.130Z,69.37
2023-01-13T08:28:17.707Z,69.60
2023-01-13T08:30:44.430Z,69.59
2023-01-13T08:33:12.727Z,69.33
2023-01-13T08:35:40.605Z,69.57
2023-01-13T08:38:08.223Z,69.07
2023-01-13T08:40:35.019Z,69.20
2023-01-13T08:43:01.510Z,68.93
2023-01-13T08:45:28.112Z,69.48
2023-01-13T08:47:54.524Z,69.37
2023-01-13T08:50:20.994Z,68.95
2023-01-13T08:52:47.511Z,68.81
2023-01-13T08:55:14.107Z,68.40
2023-01-13T08:57:40.599Z,68.81
2023-01-13T09:00:08.283Z,68.10
2023-01-13T09:02:34.944Z,68.21
2023-01-13T09:05:03.876Z,68.05
2023-01-13T09:07:31.180Z,68.34
2023-01-13T09:09:57.799Z,68.18
2023-01-13T09:12:43.111Z,67.96
2023-01-13T09:15:10.432Z,67.89
2023-01-13T09:17:36.826Z,67.53
2023-01-13T09:20:03.884Z,67.51
2023-01-13T09:22:30.371Z,67.12
2023-01-13T09:24:57.008Z,67.01
2023-01-13T09:27:23.578Z,67.09
2023-01-13T09:29:50.330Z,66.61
2023-01-13T09:32:16.857Z,66.24
2023-01-13T09:35:01.850Z,66.62
2023-01-13T09:37:40.561Z,65.62
2023-01-13T09:40:15.279Z,65.59
2023-01-13T09:43:22.314Z,65.64
2023-01-13T09:46:00.562Z,65.57
2023-01-13T09:48:32.391Z,65.56
2023-01-13T09:51:09.932Z,66.07
2023-01-13T09:54:08.934Z,65.51
2023-01-13T09:56:35.325Z,65.30
2023-01-13T09:59:01.834Z,65.01
2023-01-13T10:01:36.678Z,65.80
2023-01-13T10:04:15.007Z,65.64
2023-01-13T10:06:47.132Z,65.61
2023-01-13T10:09:49.602Z,64.65
2023-01-13T10:12:45.337Z,64.87
2023-01-13T10:15:20.745Z,65.12
2023-01-13T10:18:03.902Z,64.24
2023-01-13T10:20:41.573Z,65.07
2023-01-13T10:23:08.240Z,64.40
2023-01-13T10:25:58.947Z,64.89
2023-01-13T10:28:26.446Z,64.57
2023-01-13T10:30:53.316Z,64.36
2023-01-13T10:33:28.053Z,64.21
2023-01-13T10:35:59.568Z,65.33
2023-01-13T10:38:30.945Z,66.12
2023-01-13T10:41:00.969Z,66.63
2023-01-13T10:43:29.321Z,67.66
2023-01-13T10:46:06.337Z,68.35
2023-01-13T10:48:38.103Z,69.13
2023-01-13T10:51:19.584Z,70.05
2023-01-13T10:53:55.746Z,71.80
2023-01-13T10:56:25.244Z,72.60
2023-01-13T10:58:51.681Z,73.77
2023-01-13T11:01:25.745Z,75.15
2023-01-13T11:03:56.127Z,76.12
2023-01-13T11:06:26.719Z,76.13
2023-01-13T11:08:55.340Z,76.17
2023-01-13T11:11:27.203Z,76.27
2023-01-13T11:14:15.439Z,75.73
2023-01-13T11:16:53.054Z,76.15
2023-01-13T11:19:22.835Z,76.17
2023-01-13T11:22:07.381Z,75.78
2023-01-13T11:25:04.484Z,74.75
2023-01-13T11:27:41.975Z,74.74
2023-01-13T11:30:30.283Z,74.13
2023-01-13T11:33:15.156Z,73.08
2023-01-13T11:36:05.265Z,72.31
2023-01-13T11:38:47.781Z,71.20
2023-01-13T11:41:19.469Z,70.35
2023-01-13T11:43:52.248Z,70.02
2023-01-13T11:46:19.731Z,70.10
2023-01-13T11:48:46.257Z,71.16
2023-01-13T11:51:16.210Z,71.91
2023-01-13T11:53:52.874Z,71.60
2023-01-13T11:56:39.391Z,73.03
2023-01-13T11:59:36.364Z,72.86
2023-01-13T12:02:23.553Z,72.94
2023-01-13T12:05:14.263Z,73.03
2023-01-13T12:08:03.369Z,73.61
2023-01-13T12:10:40.756Z,73.70
2023-01-13T12:13:22.244Z,74.45
2023-01-13T12:16:15.790Z,74.17
2023-01-13T12:19:10.336Z,74.61
2023-01-13T12:21:56.575Z,74.94
2023-01-13T12:24:29.883Z,75.07
2023-01-13T12:27:31.813Z,75.02
2023-01-13T12:30:02.603Z,75.10
2023-01-13T12:32:36.240Z,75.44
2023-01-13T12:35:33.696Z,76.18
2023-01-13T12:38:24.473Z,75.84
2023-01-13T12:41:12.187Z,76.10
2023-01-13T12:44:16.563Z,76.03
2023-01-13T12:46:50.447Z,77.24
2023-01-13T12:49:23.375Z,78.15
2023-01-13T12:51:52.742Z,78.52
2023-01-13T12:54:37.646Z,78.67
2023-01-13T12:57:16.290Z,79.98
2023-01-13T13:00:06.330Z,80.47
2023-01-13T13:02:37.920Z,80.59
2023-01-13T13:05:22.589Z,81.25
2023-01-13T13:08:11.947Z,81.62
2023-01-13T13:10:45.185Z,81.31
2023-01-13T13:13:41.699Z,81.07
2023-01-13T13:16:26.468Z,81.10
2023-01-13T13:19:13.406Z,80.46
2023-01-13T13:22:18.025Z,80.44
2023-01-13T13:25:04.325Z,79.54
2023-01-13T13:28:09.054Z,79.73
2023-01-13T13:30:46.235Z,79.13
2023-01-13T13:33:39.510Z,79.15
2023-01-13T13:36:44.221Z,78.40
2023-01-13T13:39:40.797Z,78.81
2023-01-13T13:42:36.765Z,78.88
2023-01-13T13:45:33.517Z,78.84
2023-01-13T13:48:00.989Z,78.64
2023-01-13T13:50:30.299Z,78.92
2023-01-13T13:53:05.350Z,79.72
2023-01-13T13:55:32.791Z,79.91
2023-01-13T13:58:01.592Z,80.61
2023-01-13T14:00:37.938Z,81.10
2023-01-13T14:03:20.776Z,81.40
2023-01-13T14:06:00.924Z,81.64
2023-01-13T14:08:33.240Z,82.08
2023-01-13T14:10:59.861Z,81.90
2023-01-13T14:13:29.378Z,82.24
2023-01-13T14:16:01.807Z,82.57
2023-01-13T14:18:30.659Z,83.05
2023-01-13T14:21:19.533Z,83.54
2023-01-13T14:24:14.039Z,83.96
2023-01-13T14:26:41.133Z,83.78
2023-01-13T14:29:13.369Z,83.63
2023-01-13T14:31:40.336Z,83.48
2023-01-13T14:34:32.240Z,82.91
2023-01-13T14:36:54.915Z,82.80
2023-01-13T14:39:26.090Z,82.60
2023-01-13T14:41:53.395Z,81.39
2023-01-13T14:44:36.372Z,81.12
2023-01-13T14:47:17.183Z,80.51
2023-01-13T14:49:56.830Z,80.39
2023-01-13T14:52:24.885Z,80.13
2023-01-13T14:54:54.665Z,80.53
2023-01-13T14:57:33.321Z,81.09
2023-01-13T15:00:15.055Z,81.23
2023-01-13T15:02:44.569Z,82.13
2023-01-13T15:05:17.083Z,82.24
2023-01-13T15:08:05.592Z,82.55
2023-01-13T15:10:38.027Z,82.39
2023-01-13T15:13:06.778Z,82.25
2023-01-13T15:15:36.040Z,82.96
2023-01-13T15:18:15.145Z,83.70
2023-01-13T15:20:42.356Z,83.69
2023-01-13T15:23:09.403Z,83.80
2023-01-13T15:25:38.493Z,83.74
2023-01-13T15:28:07.316Z,83.25
2023-01-13T15:30:34.263Z,82.38
2023-01-13T15:33:00.736Z,82.42
2023-01-13T15:35:28.840Z,82.49
2023-01-13T15:37:56.913Z,82.47
2023-01-13T15:40:32.301Z,83.13
2023-01-13T15:43:17.080Z,82.68
2023-01-13T15:46:02.475Z,82.82
2023-01-13T15:48:33.690Z,83.11
2023-01-13T15:51:02.331Z,83.41
2023-01-13T15:53:29.654Z,83.73
2023-01-13T15:55:58.983Z,84.28
2023-01-13T15:58:28.440Z,84.89
2023-01-13T16:00:55.607Z,86.31
2023-01-13T16:03:22.259Z,86.42
2023-01-13T16:05:49.545Z,87.85
2023-01-13T16:08:17.841Z,88.07
2023-01-13T16:10:44.947Z,88.47
2023-01-13T16:13:12.791Z,88.90
2023-01-13T16:15:45.543Z,89.27
2023-01-13T16:18:25.824Z,90.08
2023-01-13T16:20:53.522Z,89.77
2023-01-13T16:23:20.523Z,89.92
2023-01-13T16:25:47.612Z,90.05
2023-01-13T16:28:20.729Z,90.50
2023-01-13T16:30:47.912Z,90.45
2023-01-13T16:33:14.668Z,89.83
2023-01-13T16:36:08.732Z,89.52
2023-01-13T16:38:27.705Z,89.49
2023-01-13T16:40:57.054Z,89.04
2023-01-13T16:43:23.581Z,89.31
2023-01-13T16:45:50.095Z,89.49
2023-01-13T16:48:20.162Z,89.60
2023-01-13T16:50:46.819Z,89.49
2023-01-13T16:53:13.279Z,89.29
2023-01-13T16:55:41.517Z,89.31
2023-01-13T16:58:18.309Z,89.01
2023-01-13T17:00:46.906Z,88.10
2023-01-13T17:03:17.211Z,87.27
2023-01-13T17:05:44.656Z,87.15
2023-01-13T17:08:17.570Z,86.36
2023-01-13T17:10:45.064Z,86.14
2023-01-13T17:13:16.417Z,85.41
2023-01-13T17:15:43.639Z,85.07
2023-01-13T17:18:11.460Z,85.25
2023-01-13T17:20:37.904Z,84.99
2023-01-13T17:23:04.365Z,85.39
2023-01-13T17:25:30.760Z,85.71
2023-01-13T17:27:58.455Z,85.96
2023-01-13T17:30:25.017Z,86.09
2023-01-13T17:32:51.497Z,86.37
2023-01-13T17:35:22.802Z,86.48
2023-01-13T17:37:49.197Z,86.33
2023-01-13T17:40:16.094Z,86.99
2023-01-13T17:42:42.690Z,86.77
2023-01-13T17:45:11.424Z,86.81
2023-01-13T17:47:38.403Z,86.51
2023-01-13T17:50:05.717Z,86.04
2023-01-13T17:52:33.692Z,86.31
2023-01-13T17:55:00.114Z,85.73
2023-01-13T17:57:26.531Z,85.48
2023-01-13T17:59:52.956Z,85.69
2023-01-13T18:02:19.600Z,85.71
2023-01-13T18:04:46.126Z,85.46
2023-01-13T18:07:12.564Z,85.69
2023-01-13T18:09:39.155Z,86.24
2023-01-13T18:12:05.855Z,86.77
2023-01-13T18:14:32.380Z,86.88
2023-01-13T18:16:58.813Z,86.71
2023-01-13T18:19:43.922Z,86.73
2023-01-13T18:22:32.327Z,87.25
2023-01-13T18:25:17.195Z,87.06
2023-01-13T18:27:43.619Z,86.91
2023-01-13T18:30:12.383Z,87.42
2023-01-13T18:32:38.837Z,87.95
2023-01-13T18:35:10.087Z,88.30
2023-01-13T18:37:39.943Z,88.90
2023-01-13T18:40:09.202Z,89.58
2023-01-13T18:42:51.470Z,89.56
2023-01-13T18:45:27.548Z,90.29
2023-01-13T18:47:58.406Z,90.29
2023-01-13T18:50:25.818Z,90.30
2023-01-13T18:52:52.665Z,90.43
2023-01-13T18:55:19.452Z,90.11
2023-01-13T18:57:46.040Z,89.85
2023-01-13T19:00:17.257Z,90.09
2023-01-13T19:02:44.858Z,89.70
2023-01-13T19:05:11.478Z,89.44
2023-01-13T19:07:38.328Z,89.52
2023-01-13T19:10:08.082Z,89.25
2023-01-13T19:12:34.453Z,89.20
2023-01-13T19:15:02.228Z,89.02
2023-01-13T19:17:34.174Z,88.83
2023-01-13T19:20:01.158Z,88.86
2023-01-13T19:22:33.436Z,88.89
2023-01-13T19:25:01.466Z,89.22
2023-01-13T19:27:28.935Z,89.75
2023-01-13T19:29:58.579Z,89.92
2023-01-13T19:32:25.874Z,89.94
2023-01-13T19:34:54.827Z,90.03
2023-01-13T19:37:21.368Z,90.11
2023-01-13T19:39:47.796Z,90.04
2023-01-13T19:42:32.518Z,90.14
2023-01-13T19:45:17.959Z,90.50
2023-01-13T19:47:45.916Z,90.35
2023-01-13T19:50:13.937Z,89.90
2023-01-13T19:52:41.640Z,89.68
2023-01-13T19:55:09.777Z,89.43
2023-01-13T19:57:36.985Z,89.19
2023-01-13T20:00:06.473Z,88.56
2023-01-13T20:02:32.983Z,87.99
2023-01-13T20:05:01.883Z,87.87
2023-01-13T20:07:30.508Z,87.56
2023-01-13T20:09:57.582Z,87.21
2023-01-13T20:12:25.211Z,87.12
2023-01-13T20:14:52.453Z,86.72
2023-01-13T20:17:21.501Z,86.61
2023-01-13T20:19:48.139Z,86.36
2023-01-13T20:22:14.870Z,85.97
2023-01-13T20:24:41.471Z,85.94
2023-01-13T20:27:07.953Z,85.32
2023-01-13T20:29:34.638Z,85.29
2023-01-13T20:32:01.518Z,85.00
2023-01-13T20:34:28.301Z,84.68
2023-01-13T20:36:54.811Z,84.68
2023-01-13T20:39:25.360Z,84.79
2023-01-13T20:42:10.230Z,84.04
2023-01-13T20:44:36.724Z,83.96
2023-01-13T20:47:03.619Z,83.87
2023-01-13T20:49:30.463Z,83.66
2023-01-13T20:51:57.523Z,83.94
2023-01-13T20:54:24.632Z,83.74
2023-01-13T20:56:51.399Z,83.52
2023-01-13T20:59:17.843Z,83.56
2023-01-13T21:01:44.344Z,83.26
2023-01-13T21:04:10.936Z,83.06
2023-01-13T21:06:37.614Z,83.11
2023-01-13T21:09:04.206Z,82.88
2023-01-13T21:11:48.987Z,82.72
2023-01-13T21:14:42.944Z,82.41
2023-01-13T21:17:31.454Z,82.04
2023-01-13T21:19:57.883Z,82.19
2023-01-13T21:22:24.636Z,81.88
2023-01-13T21:24:51.142Z,82.06
2023-01-13T21:27:17.661Z,81.67
2023-01-13T21:29:44.585Z,81.51
2023-01-13T21:32:12.310Z,81.47
2023-01-13T21:34:38.748Z,81.22
2023-01-13T21:37:05.228Z,81.05
2023-01-13T21:39:31.649Z,80.95
2023-01-13T21:42:16.506Z,80.92
2023-01-13T21:45:01.687Z,80.65
2023-01-13T21:47:46.447Z,80.73
2023-01-13T21:50:14.291Z,80.91
2023-01-13T21:52:42.665Z,81.31
2023-01-13T21:55:29.387Z,81.38
2023-01-13T21:57:58.287Z,82.20
2023-01-13T22:00:27.541Z,82.41
2023-01-13T22:02:54.550Z,83.17
2023-01-13T22:05:27.442Z,83.13
2023-01-13T22:07:54.019Z,83.30
2023-01-13T22:10:22.996Z,83.70
2023-01-13T22:12:53.216Z,83.72
2023-01-13T22:15:19.619Z,83.44
2023-01-13T22:17:49.706Z,83.42
2023-01-13T22:20:16.836Z,83.71
2023-01-13T22:22:43.242Z,83.71
2023-01-13T22:25:12.691Z,84.30
2023-01-13T22:27:40.673Z,84.39
2023-01-13T22:30:14.183Z,84.77
2023-01-13T22:32:40.609Z,85.16
2023-01-13T22:35:08.918Z,85.48
2023-01-13T22:37:36.472Z,85.50
2023-01-13T22:40:04.958Z,85.62
2023-01-13T22:42:31.561Z,85.72
2023-01-13T22:44:57.956Z,85.87
2023-01-13T22:47:24.408Z,86.26
2023-01-13T22:49:50.855Z,86.63
2023-01-13T22:52:17.685Z,86.36
2023-01-13T22:54:44.166Z,86.53
2023-01-13T22:57:10.648Z,86.87
2023-01-13T22:59:37.167Z,86.72
2023-01-13T23:02:03.693Z,86.52
2023-01-13T23:04:30.161Z,86.48
2023-01-13T23:06:56.639Z,86.85
2023-01-13T23:09:23.092Z,86.58
2023-01-13T23:11:49.527Z,86.53
2023-01-13T23:14:15.963Z,87.10
2023-01-13T23:16:42.775Z,86.87
2023-01-13T23:19:10.863Z,87.27
2023-01-13T23:21:37.995Z,87.36
2023-01-13T23:24:05.737Z,87.59
2023-01-13T23:26:33.417Z,87.54
2023-01-13T23:29:01.715Z,87.48
2023-01-13T23:31:28.302Z,87.32
2023-01-13T23:33:54.751Z,87.30
2023-01-13T23:36:23.835Z,87.25
2023-01-13T23:38:51.448Z,87.38
2023-01-13T23:41:21.913Z,87.34
2023-01-13T23:43:53.589Z,87.20
2023-01-13T23:46:20.661Z,86.99
2023-01-13T23:48:47.356Z,87.03
2023-01-13T23:51:14.468Z,86.68
2023-01-13T23:53:43.953Z,86.81
2023-01-13T23:56:13.871Z,86.60
2023-01-13T23:58:40.926Z,86.60
